Time;durP1;ratioP1;P1;durP2;ratioP2;P2;SDS_P1;SDS_P2;PMS_P1;PMS_P2;Temp;Humidity;BMP_temperature;BMP_pressure;BME280_temperature;BME280_humidity;BME280_pressure;Samples;Min_cycle;Max_cycle;Signal;HPM_P1;HPM_P2
2021/01/18 00:02:13;;;;;;;4.45;3.33;;;3.40;1.00;;;;;;5070761;28;20218;-76
2021/01/18 00:04:43;;;;;;;6.00;2.63;;;3.40;1.00;;;;;;5054071;28;20810;-76
2021/01/18 00:07:11;;;;;;;6.88;3.42;;;3.50;1.00;;;;;;5061327;28;20213;-75
2021/01/18 00:09:39;;;;;;;3.30;2.65;;;3.60;1.00;;;;;;5053714;28;20216;-76
2021/01/18 00:12:06;;;;;;;3.20;2.80;;;3.60;1.00;;;;;;5067202;28;20305;-77
2021/01/18 00:14:34;;;;;;;4.55;3.00;;;3.60;1.00;;;;;;5056687;28;20322;-76
2021/01/18 00:17:06;;;;;;;3.42;2.78;;;3.60;1.00;;;;;;5061264;28;20333;-76
2021/01/18 00:19:33;;;;;;;3.20;2.28;;;3.60;1.00;;;;;;5065364;28;20214;-76
2021/01/18 00:22:01;;;;;;;2.92;2.47;;;3.50;1.00;;;;;;5057599;28;20262;-76
2021/01/18 00:24:29;;;;;;;5.25;3.45;;;3.60;1.00;;;;;;5054741;28;20221;-76
2021/01/18 00:26:56;;;;;;;3.40;2.90;;;3.50;1.00;;;;;;5062067;28;20212;-76
2021/01/18 00:29:23;;;;;;;3.60;3.25;;;3.50;1.00;;;;;;5061877;28;20216;-78
2021/01/18 00:31:50;;;;;;;3.72;3.20;;;3.50;1.00;;;;;;5054012;28;20272;-75
2021/01/18 00:34:18;;;;;;;3.38;3.08;;;3.50;1.00;;;;;;5060059;28;20288;-76
2021/01/18 00:36:47;;;;;;;3.95;3.20;;;3.40;1.00;;;;;;5057433;28;20214;-76
2021/01/18 00:39:15;;;;;;;4.22;3.42;;;3.40;1.00;;;;;;5057858;28;20222;-76
2021/01/18 00:41:43;;;;;;;4.68;3.80;;;3.40;1.00;;;;;;5059295;28;20214;-76
2021/01/18 00:44:10;;;;;;;4.43;3.35;;;3.30;1.00;;;;;;5051264;28;20232;-76
2021/01/18 00:46:37;;;;;;;5.55;3.22;;;3.20;1.00;;;;;;5052052;28;20694;-76
2021/01/18 00:49:05;;;;;;;4.25;3.55;;;3.10;1.00;;;;;;5055906;28;20206;-77
2021/01/18 00:51:36;;;;;;;4.38;3.22;;;3.10;1.00;;;;;;5046662;28;20203;-76
2021/01/18 00:54:04;;;;;;;4.07;3.45;;;3.10;1.00;;;;;;5056137;28;20232;-77
2021/01/18 00:56:32;;;;;;;4.15;3.20;;;3.10;1.00;;;;;;5050035;28;20235;-75
2021/01/18 00:58:59;;;;;;;4.50;3.42;;;3.10;1.00;;;;;;5055134;28;20272;-76
2021/01/18 01:01:26;;;;;;;3.47;3.15;;;3.00;1.00;;;;;;5051860;28;20211;-77
2021/01/18 01:03:53;;;;;;;3.10;2.75;;;3.10;1.00;;;;;;5050217;28;20247;-78
2021/01/18 01:06:20;;;;;;;7.15;3.70;;;3.00;1.00;;;;;;5051447;28;20222;-77
2021/01/18 01:08:47;;;;;;;4.07;3.40;;;2.90;1.00;;;;;;5055719;28;20218;-77
2021/01/18 01:11:15;;;;;;;5.70;2.78;;;2.70;1.00;;;;;;5051828;28;20764;-77
2021/01/18 01:13:43;;;;;;;4.45;4.07;;;2.70;13.10;;;;;;5052104;28;20209;-76
2021/01/18 01:16:10;;;;;;;4.88;3.40;;;2.80;19.90;;;;;;5058491;28;20362;-78
2021/01/18 01:18:37;;;;;;;3.03;2.72;;;2.90;17.80;;;;;;5055571;28;20264;-78
2021/01/18 01:21:04;;;;;;;3.95;3.40;;;2.90;6.80;;;;;;5060762;28;20228;-76
2021/01/18 01:23:31;;;;;;;5.82;3.65;;;2.90;2.00;;;;;;5057416;28;20254;-78
2021/01/18 01:25:58;;;;;;;3.35;2.90;;;3.00;1.00;;;;;;5061679;28;21092;-77
2021/01/18 01:28:25;;;;;;;8.05;3.70;;;2.90;1.00;;;;;;5055688;28;20217;-76
2021/01/18 01:30:53;;;;;;;3.30;3.00;;;3.00;1.00;;;;;;5055149;28;20258;-77
2021/01/18 01:33:20;;;;;;;4.97;2.90;;;3.00;1.00;;;;;;5051588;28;20229;-77
2021/01/18 01:35:48;;;;;;;4.82;3.13;;;3.10;1.00;;;;;;5051110;28;20757;-77
2021/01/18 01:38:15;;;;;;;4.28;3.20;;;3.10;1.00;;;;;;5058162;28;20645;-76
2021/01/18 01:40:42;;;;;;;3.60;3.13;;;3.20;1.00;;;;;;5057764;28;20208;-77
2021/01/18 01:43:09;;;;;;;2.90;2.65;;;3.10;1.00;;;;;;5056043;28;20210;-76
2021/01/18 01:45:37;;;;;;;3.53;2.63;;;3.20;1.00;;;;;;5059351;28;20234;-78
2021/01/18 01:48:06;;;;;;;6.78;3.28;;;3.20;1.00;;;;;;5053005;28;20213;-76
2021/01/18 01:50:36;;;;;;;5.93;3.60;;;3.10;1.00;;;;;;5064466;28;20326;-77
2021/01/18 01:53:09;;;;;;;5.43;3.03;;;3.10;1.00;;;;;;5067507;28;20220;-76
2021/01/18 01:55:37;;;;;;;3.70;3.10;;;3.10;1.00;;;;;;5061948;28;20303;-76
2021/01/18 01:58:06;;;;;;;4.30;3.53;;;3.10;1.00;;;;;;5062283;28;20208;-76
2021/01/18 02:00:37;;;;;;;5.45;3.13;;;3.10;1.00;;;;;;5060027;28;20209;-75
2021/01/18 02:03:07;;;;;;;3.80;3.40;;;3.10;1.00;;;;;;5065528;28;20300;-76
2021/01/18 02:05:36;;;;;;;3.60;3.28;;;3.10;1.00;;;;;;5051836;28;20237;-76
2021/01/18 02:08:04;;;;;;;4.40;2.45;;;3.00;1.00;;;;;;5061395;28;20218;-76
2021/01/18 02:10:33;;;;;;;2.85;2.58;;;2.90;1.00;;;;;;5059687;28;20209;-77
2021/01/18 02:13:06;;;;;;;3.13;2.50;;;3.00;1.00;;;;;;5064069;28;20208;-77
2021/01/18 02:15:50;;;;;;;2.40;2.20;;;3.00;1.00;;;;;;5054222;28;20638;-76
2021/01/18 02:18:29;;;;;;;2.13;2.03;;;3.10;1.00;;;;;;5061463;28;20311;-77
2021/01/18 02:21:32;;;;;;;3.42;2.10;;;3.10;1.00;;;;;;5062524;28;20345;-77
2021/01/18 02:24:39;;;;;;;2.38;2.10;;;3.20;1.00;;;;;;5064913;28;20276;-76
2021/01/18 02:27:41;;;;;;;3.20;2.70;;;3.20;1.00;;;;;;5056673;28;20217;-75
2021/01/18 02:30:21;;;;;;;3.35;2.63;;;3.10;1.00;;;;;;5032875;28;20218;-76
2021/01/18 02:33:23;;;;;;;3.10;2.17;;;3.00;1.00;;;;;;5065213;28;20209;-77
2021/01/18 02:36:07;;;;;;;2.75;2.17;;;3.00;1.00;;;;;;5014015;28;20322;-76
2021/01/18 02:38:42;;;;;;;4.57;2.78;;;2.90;1.00;;;;;;5059373;28;20242;-75
2021/01/18 02:41:20;;;;;;;3.35;2.25;;;3.00;1.00;;;;;;5061334;28;20257;-76
2021/01/18 02:43:51;;;;;;;3.40;2.30;;;3.10;1.00;;;;;;5060635;28;20296;-76
2021/01/18 02:46:21;;;;;;;4.07;2.25;;;3.00;1.00;;;;;;5062158;28;20231;-75
2021/01/18 02:48:49;;;;;;;4.95;2.58;;;3.10;1.00;;;;;;5070679;28;20600;-77
2021/01/18 02:51:21;;;;;;;3.08;2.38;;;3.00;1.00;;;;;;5060973;28;20201;-76
2021/01/18 02:53:59;;;;;;;2.67;2.30;;;3.00;1.00;;;;;;5057545;28;20400;-75
2021/01/18 02:56:28;;;;;;;3.33;2.92;;;3.00;1.00;;;;;;5064558;28;20887;-76
2021/01/18 02:58:57;;;;;;;2.83;2.17;;;3.10;1.00;;;;;;5063283;28;20285;-77
2021/01/18 03:01:54;;;;;;;2.30;2.05;;;3.10;1.00;;;;;;5062097;28;20209;-76
2021/01/18 03:04:43;;;;;;;2.92;2.63;;;3.10;1.00;;;;;;5053109;28;20917;-77
2021/01/18 03:07:20;;;;;;;3.28;2.65;;;3.10;1.00;;;;;;5058364;28;20206;-76
2021/01/18 03:09:54;;;;;;;3.28;3.03;;;3.00;1.00;;;;;;5062563;28;20216;-77
2021/01/18 03:12:23;;;;;;;3.22;2.88;;;3.00;1.00;;;;;;5062891;28;20286;-77
2021/01/18 03:14:54;;;;;;;3.30;2.90;;;3.00;1.00;;;;;;5057623;28;20649;-77
2021/01/18 03:17:26;;;;;;;2.60;2.40;;;3.00;1.00;;;;;;5059365;28;20225;-76
2021/01/18 03:19:55;;;;;;;3.55;2.70;;;3.00;1.00;;;;;;5062691;28;20295;-76
2021/01/18 03:22:24;;;;;;;3.38;3.08;;;3.00;1.00;;;;;;5059720;28;20220;-76
2021/01/18 03:24:52;;;;;;;3.55;3.17;;;3.00;1.00;;;;;;5065334;28;20227;-76
2021/01/18 03:27:20;;;;;;;5.60;3.80;;;3.00;1.00;;;;;;5063964;28;20705;-77
2021/01/18 03:29:49;;;;;;;5.85;3.40;;;3.00;1.00;;;;;;5062444;28;20236;-77
2021/01/18 03:32:17;;;;;;;5.60;3.40;;;3.00;1.00;;;;;;5067157;28;20298;-77
2021/01/18 03:34:45;;;;;;;5.22;3.75;;;3.10;1.00;;;;;;5062551;28;20243;-77
2021/01/18 03:37:12;;;;;;;4.72;3.90;;;3.10;1.00;;;;;;5056544;28;20209;-78
2021/01/18 03:39:40;;;;;;;4.07;3.30;;;3.10;1.00;;;;;;5057703;28;20213;-77
2021/01/18 03:42:11;;;;;;;4.20;3.67;;;3.10;1.00;;;;;;5054390;28;20210;-76
2021/01/18 03:44:38;;;;;;;5.82;3.55;;;3.00;1.00;;;;;;5057333;28;20241;-77
2021/01/18 03:47:06;;;;;;;5.50;3.60;;;3.00;1.00;;;;;;5066499;28;20275;-77
2021/01/18 03:49:34;;;;;;;5.47;3.50;;;3.00;1.00;;;;;;5060715;28;20209;-77
2021/01/18 03:52:01;;;;;;;6.00;4.35;;;3.00;1.00;;;;;;5063113;28;20208;-76
2021/01/18 03:54:28;;;;;;;6.30;4.65;;;3.00;1.00;;;;;;5056913;28;20217;-76
2021/01/18 03:56:56;;;;;;;5.78;4.03;;;3.00;1.00;;;;;;5065004;28;20228;-76
2021/01/18 03:59:23;;;;;;;5.78;3.92;;;3.00;1.00;;;;;;5061993;28;20686;-75
2021/01/18 04:01:50;;;;;;;5.90;4.05;;;3.00;1.00;;;;;;5058843;28;20282;-75
2021/01/18 04:04:17;;;;;;;5.80;3.90;;;3.10;1.00;;;;;;5061898;28;20226;-76
2021/01/18 04:06:44;;;;;;;7.85;4.68;;;3.00;1.00;;;;;;5064677;28;20202;-76
2021/01/18 04:09:12;;;;;;;5.70;4.65;;;3.10;1.00;;;;;;5056711;28;20221;-76
2021/01/18 04:11:39;;;;;;;5.50;3.40;;;3.00;1.00;;;;;;5056954;28;21960;-77
2021/01/18 04:14:07;;;;;;;9.40;4.63;;;2.80;1.00;;;;;;5059075;28;20209;-76
2021/01/18 04:16:40;;;;;;;5.82;4.65;;;2.70;1.00;;;;;;5061497;28;20227;-77
2021/01/18 04:19:07;;;;;;;5.15;3.70;;;2.60;1.00;;;;;;5067152;28;20802;-78
2021/01/18 04:21:37;;;;;;;5.85;4.65;;;2.60;1.00;;;;;;5061694;28;20263;-78
2021/01/18 04:24:05;;;;;;;7.85;3.92;;;2.60;1.00;;;;;;5057366;28;20278;-77
2021/01/18 04:26:32;;;;;;;6.63;4.20;;;2.60;1.00;;;;;;5065603;28;20260;-78
2021/01/18 04:28:59;;;;;;;4.50;3.88;;;2.50;1.00;;;;;;5060982;28;20571;-77
2021/01/18 04:31:27;;;;;;;4.57;4.18;;;2.50;1.00;;;;;;5067899;28;20265;-77
2021/01/18 04:33:55;;;;;;;4.13;3.47;;;2.50;1.00;;;;;;5056758;28;20259;-78
2021/01/18 04:36:22;;;;;;;6.88;3.78;;;2.40;1.00;;;;;;5057536;28;20290;-77
2021/01/18 04:38:50;;;;;;;4.82;3.85;;;2.40;1.00;;;;;;5054588;28;20688;-79
2021/01/18 04:41:17;;;;;;;5.35;3.30;;;2.50;1.00;;;;;;5055255;28;20242;-77
2021/01/18 04:43:45;;;;;;;4.00;3.10;;;2.50;1.00;;;;;;5061894;28;20873;-77
2021/01/18 04:46:17;;;;;;;3.80;2.88;;;2.60;1.00;;;;;;5061302;28;20238;-78
2021/01/18 04:48:46;;;;;;;4.25;3.63;;;2.60;1.00;;;;;;5054842;28;20701;-77
2021/01/18 04:51:16;;;;;;;6.70;4.03;;;2.70;1.00;;;;;;5059928;28;20213;-77
2021/01/18 04:53:49;;;;;;;5.30;3.92;;;2.80;1.00;;;;;;5060721;28;20430;-78
2021/01/18 04:56:31;;;;;;;4.65;3.72;;;2.80;1.00;;;;;;5056656;28;20317;-78
2021/01/18 04:59:03;;;;;;;5.50;3.50;;;2.80;1.00;;;;;;5060185;28;20210;-77
2021/01/18 05:01:36;;;;;;;5.35;4.22;;;2.90;1.00;;;;;;5063658;28;20209;-77
2021/01/18 05:04:10;;;;;;;7.47;5.30;;;2.90;1.00;;;;;;5061839;28;20235;-77
2021/01/18 05:06:47;;;;;;;6.57;4.20;;;2.90;1.00;;;;;;5060057;28;20205;-78
2021/01/18 05:09:29;;;;;;;5.65;3.97;;;2.90;1.00;;;;;;5040372;28;20681;-77
2021/01/18 05:12:00;;;;;;;7.88;4.53;;;2.90;1.00;;;;;;5057257;28;20214;-78
2021/01/18 05:14:27;;;;;;;6.22;4.82;;;2.80;1.00;;;;;;5058492;28;20496;-78
2021/01/18 05:16:57;;;;;;;6.47;4.35;;;2.70;1.00;;;;;;5060487;28;20465;-74
2021/01/18 05:19:27;;;;;;;4.30;3.47;;;2.60;1.00;;;;;;5063309;28;20342;-79
2021/01/18 05:21:56;;;;;;;6.82;3.50;;;2.60;1.00;;;;;;5077469;28;20213;-78
2021/01/18 05:24:24;;;;;;;7.47;4.67;;;2.70;1.00;;;;;;5058511;28;20551;-77
2021/01/18 05:27:08;;;;;;;6.05;4.00;;;2.70;1.00;;;;;;5061573;28;20462;-79
2021/01/18 05:29:37;;;;;;;6.40;4.10;;;2.70;1.00;;;;;;5053857;28;20305;-79
2021/01/18 05:32:20;;;;;;;5.38;3.97;;;2.50;1.00;;;;;;5059074;28;20213;-78
2021/01/18 05:34:52;;;;;;;5.95;3.95;;;2.30;1.00;;;;;;5065011;28;20692;-78
2021/01/18 05:37:19;;;;;;;4.22;3.10;;;2.30;1.00;;;;;;5059300;28;20751;-77
2021/01/18 05:39:46;;;;;;;3.35;3.05;;;2.10;1.00;;;;;;5048596;28;20213;-77
2021/01/18 05:42:20;;;;;;;5.68;3.70;;;2.00;1.00;;;;;;5058901;28;20222;-78
2021/01/18 05:44:48;;;;;;;5.88;4.03;;;1.90;1.20;;;;;;5058879;28;20232;-77
2021/01/18 05:47:16;;;;;;;8.95;3.35;;;1.90;4.50;;;;;;5056853;28;20782;-78
2021/01/18 05:49:45;;;;;;;6.47;3.50;;;1.90;1.00;;;;;;5060939;28;20303;-77
2021/01/18 05:52:27;;;;;;;3.97;3.30;;;2.00;1.00;;;;;;5062921;28;20235;-78
2021/01/18 05:55:17;;;;;;;4.18;3.03;;;2.00;1.00;;;;;;5061807;28;20279;-76
2021/01/18 05:57:50;;;;;;;3.65;2.67;;;2.00;1.00;;;;;;5063614;28;20224;-79
2021/01/18 06:00:28;;;;;;;7.90;3.00;;;1.90;1.00;;;;;;5052116;28;20227;-80
2021/01/18 06:02:58;;;;;;;3.95;2.80;;;1.80;1.00;;;;;;5061646;28;20220;-77
2021/01/18 06:05:27;;;;;;;7.63;2.95;;;1.80;1.00;;;;;;5055889;28;20234;-79
2021/01/18 06:08:06;;;;;;;4.00;2.95;;;1.80;1.00;;;;;;5061670;28;20208;-78
2021/01/18 06:10:34;;;;;;;3.88;3.10;;;1.80;1.00;;;;;;5056535;28;20221;-78
2021/01/18 06:13:01;;;;;;;3.60;3.30;;;1.80;1.00;;;;;;5047381;28;20197;-76
2021/01/18 06:15:29;;;;;;;4.55;4.15;;;1.70;1.00;;;;;;5056813;28;20224;-77
2021/01/18 06:17:57;;;;;;;5.30;3.60;;;1.60;1.00;;;;;;5059609;28;20221;-80
2021/01/18 06:20:27;;;;;;;5.55;3.50;;;1.50;1.00;;;;;;5050542;28;20336;-79
2021/01/18 06:22:56;;;;;;;4.18;3.50;;;1.40;3.20;;;;;;5058768;28;20219;-77
2021/01/18 06:25:25;;;;;;;7.30;4.32;;;1.40;9.10;;;;;;5063492;28;20485;-78
2021/01/18 06:27:52;;;;;;;6.47;4.35;;;1.30;18.00;;;;;;5060783;28;21201;-77
2021/01/18 06:30:26;;;;;;;7.28;4.47;;;1.20;24.10;;;;;;5066418;28;20271;-80
2021/01/18 06:32:57;;;;;;;5.50;3.90;;;1.20;27.50;;;;;;5055444;28;20234;-78
2021/01/18 06:35:27;;;;;;;3.80;3.25;;;1.30;27.30;;;;;;5049307;28;20646;-79
2021/01/18 06:38:00;;;;;;;5.75;3.60;;;1.40;21.80;;;;;;5055117;28;20751;-78
2021/01/18 06:40:36;;;;;;;3.35;2.72;;;1.30;15.00;;;;;;5071257;28;20220;-78
2021/01/18 06:43:05;;;;;;;3.78;2.30;;;1.30;15.40;;;;;;5061240;28;20906;-78
2021/01/18 06:45:34;;;;;;;4.93;2.70;;;1.40;10.40;;;;;;5057833;28;20231;-80
2021/01/18 06:48:03;;;;;;;4.00;2.22;;;1.50;2.40;;;;;;5052691;28;20270;-80
2021/01/18 06:50:33;;;;;;;3.72;1.98;;;1.50;2.00;;;;;;5062498;28;20222;-78
2021/01/18 06:53:16;;;;;;;4.57;2.60;;;1.50;1.00;;;;;;5064329;28;20531;-79
2021/01/18 06:56:37;;;;;;;3.45;1.90;;;1.40;1.00;;;;;;5070247;28;20232;-82
2021/01/18 06:59:08;;;;;;;1.90;1.80;;;1.50;1.00;;;;;;5056723;28;20227;-77
2021/01/18 07:01:37;;;;;;;3.67;2.13;;;1.40;1.00;;;;;;5064320;28;20214;-77
2021/01/18 07:04:06;;;;;;;2.88;2.33;;;1.50;2.00;;;;;;5061344;28;20203;-79
2021/01/18 07:06:35;;;;;;;3.47;2.40;;;1.50;1.00;;;;;;5062958;28;20227;-79
2021/01/18 07:09:06;;;;;;;2.70;1.90;;;1.50;2.00;;;;;;5053523;28;20220;-76
2021/01/18 07:12:00;;;;;;;2.45;1.70;;;1.60;1.00;;;;;;5064859;28;20218;-77
2021/01/18 07:14:29;;;;;;;5.88;2.00;;;1.70;1.00;;;;;;5058673;28;20224;-76
2021/01/18 07:17:02;;;;;;;3.97;1.92;;;1.80;1.00;;;;;;5066701;28;20212;-77
2021/01/18 07:19:35;;;;;;;5.97;2.08;;;1.80;1.00;;;;;;5048764;28;20606;-79
2021/01/18 07:22:36;;;;;;;3.28;2.13;;;1.70;1.00;;;;;;5056577;28;20232;-76
2021/01/18 07:25:25;;;;;;;2.72;2.20;;;1.70;1.00;;;;;;5051635;28;20238;-77
2021/01/18 07:27:53;;;;;;;8.10;2.13;;;1.70;1.00;;;;;;5060339;28;20320;-77
2021/01/18 07:30:21;;;;;;;4.78;1.90;;;1.70;1.00;;;;;;5063103;28;20816;-78
2021/01/18 07:32:48;;;;;;;2.40;2.10;;;1.70;1.00;;;;;;5063494;28;20204;-76
2021/01/18 07:35:16;;;;;;;2.40;2.20;;;1.80;1.00;;;;;;5059624;28;20232;-76
2021/01/18 07:37:43;;;;;;;3.67;2.33;;;2.00;1.00;;;;;;5057072;28;20675;-76
2021/01/18 07:40:13;;;;;;;3.40;1.73;;;2.00;1.00;;;;;;5048795;28;20211;-77
2021/01/18 07:42:42;;;;;;;2.15;1.95;;;2.00;1.00;;;;;;5050680;28;20225;-79
2021/01/18 07:45:17;;;;;;;3.33;1.85;;;2.10;1.00;;;;;;5053389;28;20580;-78
2021/01/18 07:48:05;;;;;;;3.28;2.30;;;2.10;1.00;;;;;;5064576;28;20239;-75
2021/01/18 07:50:34;;;;;;;3.10;2.17;;;2.30;1.00;;;;;;5059821;28;20240;-77
2021/01/18 07:53:03;;;;;;;2.15;1.95;;;2.40;1.00;;;;;;5055885;28;20715;-79
2021/01/18 07:55:31;;;;;;;2.92;2.35;;;2.50;1.00;;;;;;5070869;28;20326;-75
2021/01/18 07:58:16;;;;;;;2.88;2.53;;;2.70;1.00;;;;;;5055914;28;20222;-79
2021/01/18 08:00:44;;;;;;;2.70;2.42;;;2.80;1.00;;;;;;5060894;28;20219;-83
2021/01/18 08:03:27;;;;;;;2.55;2.00;;;3.00;1.00;;;;;;5065276;28;20213;-81
2021/01/18 08:06:11;;;;;;;13.73;3.97;;;3.10;99.90;;;;;;5063457;28;20233;-86
2021/01/18 08:08:40;;;;;;;5.68;2.85;;;3.20;99.90;;;;;;5062273;28;20205;-82
2021/01/18 08:11:16;;;;;;;2.20;2.00;;;3.30;99.90;;;;;;5066222;28;20237;-81
2021/01/18 08:13:56;;;;;;;4.05;2.08;;;3.20;99.90;;;;;;5065656;28;20693;-81
2021/01/18 08:16:40;;;;;;;3.40;2.40;;;3.30;99.90;;;;;;5063093;28;20272;-84
2021/01/18 08:19:18;;;;;;;3.10;2.67;;;3.40;99.90;;;;;;5065771;28;20217;-85
2021/01/18 08:22:09;;;;;;;2.28;1.95;;;3.40;99.90;;;;;;5071484;28;20266;-80
2021/01/18 08:25:01;;;;;;;3.92;2.58;;;3.50;99.90;;;;;;5056740;28;20261;-81
2021/01/18 08:27:50;;;;;;;6.13;3.15;;;3.60;99.90;;;;;;5079218;28;20206;-83
2021/01/18 08:30:37;;;;;;;7.30;4.85;;;3.50;1.00;;;;;;5065265;28;20314;-81
2021/01/18 08:33:08;;;;;;;7.95;5.82;;;3.50;1.00;;;;;;5057159;28;20230;-82
2021/01/18 08:35:45;;;;;;;11.43;8.05;;;3.60;1.00;;;;;;5064532;28;20279;-82
2021/01/18 08:38:22;;;;;;;8.90;5.00;;;3.60;1.00;;;;;;5060366;28;20210;-77
2021/01/18 08:40:50;;;;;;;5.05;3.22;;;3.70;1.00;;;;;;5058446;28;20216;-77
2021/01/18 08:43:19;;;;;;;4.30;3.50;;;3.90;1.00;;;;;;5061456;28;20217;-77
2021/01/18 08:45:49;;;;;;;7.72;3.65;;;3.90;99.90;;;;;;5056869;28;20233;-79
2021/01/18 08:48:20;;;;;;;5.18;3.03;;;3.90;99.90;;;;;;5063884;28;20219;-80
2021/01/18 08:50:52;;;;;;;5.68;3.45;;;4.00;99.90;;;;;;5060185;28;20221;-80
2021/01/18 08:53:26;;;;;;;6.75;3.30;;;3.90;1.00;;;;;;5058808;28;20703;-79
2021/01/18 08:55:55;;;;;;;6.00;3.03;;;3.70;1.00;;;;;;5053237;28;20372;-79
2021/01/18 08:58:42;;;;;;;6.90;3.22;;;3.80;99.90;;;;;;5053771;28;20235;-78
2021/01/18 09:01:14;;;;;;;4.40;4.00;;;3.80;1.00;;;;;;5058697;28;20807;-79
2021/01/18 09:03:42;;;;;;;4.25;3.15;;;3.70;1.00;;;;;;5052025;28;20207;-78
2021/01/18 09:06:10;;;;;;;4.88;3.10;;;3.70;99.90;;;;;;5061621;28;20238;-79
2021/01/18 09:08:40;;;;;;;4.60;2.95;;;3.70;99.90;;;;;;5054636;28;20312;-77
2021/01/18 09:11:10;;;;;;;3.65;2.25;;;3.70;99.90;;;;;;5074441;28;20830;-79
2021/01/18 09:13:39;;;;;;;4.38;2.83;;;3.60;99.90;;;;;;5058010;28;20214;-78
2021/01/18 09:16:08;;;;;;;4.28;2.47;;;3.50;99.90;;;;;;5056821;28;20313;-78
2021/01/18 09:18:37;;;;;;;2.67;2.40;;;3.40;99.90;;;;;;5049894;28;20236;-78
2021/01/18 09:21:08;;;;;;;3.90;2.42;;;3.20;1.00;;;;;;5050730;28;20232;-78
2021/01/18 09:23:35;;;;;;;4.53;2.60;;;3.10;1.00;;;;;;5059981;28;20914;-76
2021/01/18 09:26:07;;;;;;;4.45;2.88;;;3.10;1.00;;;;;;5058761;28;20237;-77
2021/01/18 09:28:35;;;;;;;6.03;2.55;;;3.00;1.00;;;;;;5062343;28;20204;-77
2021/01/18 09:31:10;;;;;;;8.48;2.95;;;2.90;1.00;;;;;;5057786;28;20218;-79
2021/01/18 09:33:40;;;;;;;4.60;1.92;;;2.90;1.00;;;;;;5065876;28;20222;-80
2021/01/18 09:36:12;;;;;;;5.75;1.75;;;2.90;1.00;;;;;;5063265;28;20780;-79
2021/01/18 09:38:40;;;;;;;3.10;2.42;;;2.80;1.00;;;;;;5066652;28;20210;-79
2021/01/18 09:41:08;;;;;;;5.07;1.98;;;2.80;1.00;;;;;;5057020;28;20502;-78
2021/01/18 09:43:35;;;;;;;2.63;2.40;;;2.80;1.00;;;;;;5054748;28;20248;-80
2021/01/18 09:46:03;;;;;;;3.33;2.17;;;2.80;1.00;;;;;;5055960;28;20232;-79
2021/01/18 09:48:31;;;;;;;3.60;1.80;;;3.00;1.00;;;;;;5053010;28;20558;-79
2021/01/18 09:51:02;;;;;;;3.00;2.30;;;3.30;1.00;;;;;;5054130;28;20206;-78
2021/01/18 09:53:30;;;;;;;2.15;1.95;;;3.30;1.00;;;;;;5053743;28;20723;-80
2021/01/18 09:56:01;;;;;;;2.83;2.28;;;3.40;1.00;;;;;;5054362;28;20238;-80
2021/01/18 09:58:38;;;;;;;2.15;1.90;;;3.40;1.00;;;;;;5062605;28;20322;-79
2021/01/18 10:01:09;;;;;;;2.67;2.05;;;3.50;1.00;;;;;;5058713;28;20220;-79
2021/01/18 10:03:39;;;;;;;3.70;2.63;;;3.50;1.00;;;;;;5059245;28;20213;-81
2021/01/18 10:06:09;;;;;;;2.78;2.30;;;3.50;1.00;;;;;;5078050;28;20281;-80
2021/01/18 10:08:42;;;;;;;2.33;1.95;;;3.50;1.00;;;;;;5050265;28;20482;-81
2021/01/18 10:11:10;;;;;;;4.05;2.72;;;3.40;1.00;;;;;;5061034;28;20220;-78
2021/01/18 10:13:38;;;;;;;6.53;3.00;;;3.40;1.00;;;;;;5069486;28;20214;-81
2021/01/18 10:16:12;;;;;;;2.58;2.38;;;3.50;1.00;;;;;;5056640;28;20244;-79
2021/01/18 10:18:42;;;;;;;2.97;2.28;;;3.80;1.00;;;;;;5061104;28;20267;-78
2021/01/18 10:21:11;;;;;;;1.90;1.80;;;4.00;1.00;;;;;;5067055;28;20217;-75
2021/01/18 10:23:41;;;;;;;4.35;2.17;;;4.10;99.90;;;;;;5064393;28;20315;-81
2021/01/18 10:26:23;;;;;;;2.30;2.10;;;4.00;99.90;;;;;;5072478;28;20246;-78
2021/01/18 10:28:56;;;;;;;2.80;2.08;;;4.10;99.90;;;;;;5079186;28;20217;-79
2021/01/18 10:31:24;;;;;;;2.90;2.10;;;3.90;99.90;;;;;;5068045;28;20215;-80
2021/01/18 10:34:26;;;;;;;2.22;2.03;;;4.00;99.90;;;;;;5064510;28;20547;-80
2021/01/18 10:36:56;;;;;;;2.13;1.92;;;4.10;99.90;;;;;;5010242;28;20635;-79
2021/01/18 10:39:29;;;;;;;4.18;1.90;;;4.20;70.20;;;;;;5004955;28;20259;-78
2021/01/18 10:42:08;;;;;;;5.18;2.00;;;4.40;99.90;;;;;;5044026;28;20776;-79
2021/01/18 10:44:38;;;;;;;2.53;1.65;;;4.60;1.00;;;;;;5058955;28;20249;-77
2021/01/18 10:47:06;;;;;;;2.42;1.63;;;4.50;1.00;;;;;;5077034;28;20212;-79
2021/01/18 10:49:38;;;;;;;3.85;1.95;;;4.80;99.90;;;;;;5067399;28;20656;-78
2021/01/18 10:52:09;;;;;;;2.22;1.90;;;4.90;99.90;;;;;;5057313;28;20251;-78
2021/01/18 10:54:38;;;;;;;2.30;2.10;;;4.70;66.60;;;;;;5062933;28;20716;-79
2021/01/18 10:57:20;;;;;;;3.90;2.03;;;4.40;1.00;;;;;;5063313;28;20521;-83
2021/01/18 11:00:08;;;;;;;2.50;2.20;;;4.30;1.00;;;;;;5056675;28;20211;-79
2021/01/18 11:02:36;;;;;;;2.35;2.03;;;4.10;99.90;;;;;;5059316;28;20469;-79
2021/01/18 11:05:05;;;;;;;4.30;2.40;;;3.80;99.90;;;;;;5067193;28;21192;-79
2021/01/18 11:07:35;;;;;;;3.35;2.10;;;3.80;99.90;;;;;;5066648;28;20222;-78
2021/01/18 11:10:13;;;;;;;4.15;2.10;;;4.10;1.00;;;;;;5066503;28;20211;-79
2021/01/18 11:12:41;;;;;;;3.45;2.20;;;4.40;65.80;;;;;;5062722;28;20203;-79
2021/01/18 11:15:11;;;;;;;6.47;2.95;;;4.60;1.00;;;;;;5069929;28;20229;-82
2021/01/18 11:17:39;;;;;;;5.38;2.95;;;4.80;99.90;;;;;;5070714;28;20216;-81
2021/01/18 11:20:09;;;;;;;4.45;2.50;;;5.20;99.90;;;;;;5066752;28;20218;-80
2021/01/18 11:22:38;;;;;;;3.30;2.37;;;5.50;99.90;;;;;;5068728;28;20208;-82
2021/01/18 11:25:06;;;;;;;4.30;2.38;;;5.40;1.00;;;;;;5068256;28;20980;-81
2021/01/18 11:27:35;;;;;;;4.47;2.65;;;5.40;1.00;;;;;;5079895;28;20195;-83
2021/01/18 11:30:03;;;;;;;5.47;3.17;;;5.50;99.90;;;;;;5074795;28;20202;-85
2021/01/18 11:32:30;;;;;;;5.67;2.07;;;5.80;70.90;;;;;;5077724;28;20222;-85
2021/01/18 11:34:58;;;;;;;3.83;2.05;;;5.70;99.90;;;;;;5069194;28;20530;-81
2021/01/18 11:37:25;;;;;;;2.80;2.00;;;5.70;1.00;;;;;;5068085;28;20232;-84
2021/01/18 11:39:53;;;;;;;2.67;2.30;;;5.70;99.90;;;;;;5071114;28;20458;-80
2021/01/18 11:42:20;;;;;;;2.80;2.00;;;5.60;1.00;;;;;;5071825;28;20215;-83
2021/01/18 11:44:47;;;;;;;3.37;2.70;;;5.50;99.90;;;;;;5066578;28;20490;-82
2021/01/18 11:47:14;;;;;;;3.13;2.23;;;5.20;1.00;;;;;;5067766;28;20504;-82
2021/01/18 11:49:42;;;;;;;2.80;2.03;;;5.00;99.90;;;;;;5070466;28;20465;-79
2021/01/18 11:52:10;;;;;;;2.50;2.30;;;5.00;1.00;;;;;;5064816;28;20481;-82
2021/01/18 11:54:37;;;;;;;2.38;1.77;;;4.90;99.90;;;;;;5067367;28;20492;-83
2021/01/18 11:57:07;;;;;;;2.50;2.33;;;5.00;66.50;;;;;;5065431;28;20212;-82
2021/01/18 11:59:34;;;;;;;5.95;2.40;;;4.90;27.70;;;;;;5063369;28;20471;-83
2021/01/18 12:02:01;;;;;;;5.13;2.45;;;4.80;1.00;;;;;;5072667;28;20212;-85
2021/01/18 12:04:28;;;;;;;4.35;2.00;;;5.00;99.90;;;;;;5060819;28;20273;-84
2021/01/18 12:06:55;;;;;;;2.85;2.40;;;5.00;1.00;;;;;;5070433;28;20307;-82
2021/01/18 12:09:23;;;;;;;2.30;1.90;;;4.80;36.20;;;;;;5060401;28;20216;-81
2021/01/18 12:11:50;;;;;;;4.40;2.20;;;4.60;14.90;;;;;;5058601;28;20704;-82
2021/01/18 12:14:19;;;;;;;2.00;1.77;;;4.50;1.00;;;;;;5061469;28;20512;-81
2021/01/18 12:16:46;;;;;;;2.80;2.30;;;4.70;99.90;;;;;;5064089;28;20215;-84
2021/01/18 12:19:14;;;;;;;3.55;1.80;;;5.30;1.00;;;;;;5064962;28;20473;-82
2021/01/18 12:21:43;;;;;;;1.90;1.60;;;5.80;1.00;;;;;;5071527;28;20221;-81
2021/01/18 12:24:10;;;;;;;3.08;1.90;;;5.70;1.00;;;;;;5067992;28;20654;-82
2021/01/18 12:26:38;;;;;;;3.97;2.10;;;5.70;1.00;;;;;;5065102;28;20240;-82
2021/01/18 12:29:05;;;;;;;4.10;2.23;;;5.50;1.00;;;;;;5064801;28;20465;-82
2021/01/18 12:31:36;;;;;;;3.55;2.25;;;5.30;99.90;;;;;;5065111;28;20472;-81
2021/01/18 12:34:04;;;;;;;3.57;1.97;;;5.40;99.90;;;;;;5070263;28;20216;-83
2021/01/18 12:36:31;;;;;;;2.50;2.13;;;5.20;83.60;;;;;;5065020;28;20486;-80
2021/01/18 12:38:59;;;;;;;2.10;1.80;;;5.30;99.90;;;;;;5058433;28;20750;-82
2021/01/18 12:41:26;;;;;;;3.07;2.23;;;5.20;99.90;;;;;;5068327;28;20477;-82
2021/01/18 12:43:54;;;;;;;2.75;2.15;;;5.10;1.00;;;;;;5060530;28;20531;-81
2021/01/18 12:46:21;;;;;;;1.88;1.60;;;4.90;99.90;;;;;;5061316;28;20248;-80
2021/01/18 12:48:49;;;;;;;2.50;1.80;;;4.90;1.00;;;;;;5067122;28;20208;-84
2021/01/18 12:51:16;;;;;;;2.50;1.80;;;4.80;99.90;;;;;;5062962;28;20214;-80
2021/01/18 12:53:44;;;;;;;3.15;2.10;;;4.80;99.90;;;;;;5065237;28;20205;-80
2021/01/18 12:56:18;;;;;;;3.50;2.13;;;4.80;27.60;;;;;;5058638;28;20231;-81
2021/01/18 12:58:46;;;;;;;2.47;1.90;;;4.90;1.00;;;;;;5058973;28;20698;-82
2021/01/18 13:01:13;;;;;;;3.78;2.10;;;4.90;99.90;;;;;;5063636;28;20226;-81
2021/01/18 13:03:40;;;;;;;4.20;2.45;;;4.90;1.00;;;;;;5057723;28;20826;-80
2021/01/18 13:06:09;;;;;;;4.40;1.77;;;5.00;99.90;;;;;;5066441;28;20219;-80
2021/01/18 13:08:36;;;;;;;1.70;1.52;;;4.90;85.90;;;;;;5056497;28;20290;-83
2021/01/18 13:11:04;;;;;;;1.80;1.52;;;4.90;1.00;;;;;;5065562;28;20209;-83
2021/01/18 13:13:31;;;;;;;5.15;2.20;;;5.00;1.00;;;;;;5052909;28;20269;-82
2021/01/18 13:16:00;;;;;;;3.28;1.70;;;5.10;1.00;;;;;;5062391;28;20235;-83
2021/01/18 13:18:29;;;;;;;2.87;1.20;;;5.10;99.90;;;;;;5062794;28;20269;-81
2021/01/18 13:20:56;;;;;;;6.13;1.85;;;5.10;99.90;;;;;;5065066;28;20463;-82
2021/01/18 13:23:25;;;;;;;3.38;1.80;;;5.10;1.00;;;;;;5061389;28;20301;-82
2021/01/18 13:25:52;;;;;;;1.95;1.73;;;5.00;1.00;;;;;;5070124;28;20258;-81
2021/01/18 13:28:19;;;;;;;4.70;1.60;;;4.80;1.00;;;;;;5065320;28;20420;-81